Time;durP1;ratioP1;P1;durP2;ratioP2;P2;SDS_P1;SDS_P2;PMS_P1;PMS_P2;Temp;Humidity;BMP_temperature;BMP_pressure;BME280_temperature;BME280_humidity;BME280_pressure;Samples;Min_cycle;Max_cycle;Signal;HPM_P1;HPM_P2
2023/09/05 00:01:59;;;;;;;7.55;5.55;;;;;;;18.63;80.57;101824.50;5073850;28;20425;-60
2023/09/05 00:04:25;;;;;;;6.13;5.30;;;;;;;18.52;81.35;101822.69;5074797;28;20028;-60
2023/09/05 00:06:50;;;;;;;5.78;5.22;;;;;;;18.48;81.78;101821.22;5079956;28;20341;-60
2023/09/05 00:09:18;;;;;;;8.60;5.72;;;;;;;18.42;82.14;101825.28;5076890;28;20525;-60
2023/09/05 00:11:44;;;;;;;7.32;5.32;;;;;;;18.39;81.54;101822.81;5077500;28;20051;-60
2023/09/05 00:14:10;;;;;;;6.75;5.90;;;;;;;18.31;82.25;101815.34;5075768;28;20025;-60
2023/09/05 00:16:36;;;;;;;6.20;5.60;;;;;;;18.12;82.75;101815.13;5076014;28;20048;-60
2023/09/05 00:19:02;;;;;;;7.00;5.70;;;;;;;18.09;83.08;101810.00;5080406;28;20032;-61
2023/09/05 00:21:27;;;;;;;7.47;5.97;;;;;;;18.08;83.15;101814.50;5075616;28;20032;-61
2023/09/05 00:23:53;;;;;;;6.60;5.72;;;;;;;18.24;82.58;101813.28;5076727;28;20029;-60
2023/09/05 00:26:18;;;;;;;6.68;5.95;;;;;;;18.11;82.88;101821.47;5075851;28;20065;-60
2023/09/05 00:28:46;;;;;;;7.40;5.60;;;;;;;18.00;83.10;101816.97;5074600;28;20468;-60
2023/09/05 00:31:14;;;;;;;7.75;5.60;;;;;;;18.09;82.69;101818.06;5074152;28;20025;-60
2023/09/05 00:33:39;;;;;;;7.05;5.68;;;;;;;17.87;83.84;101821.56;5079783;28;20024;-61
2023/09/05 00:36:05;;;;;;;10.70;5.22;;;;;;;17.98;83.11;101807.28;5114438;28;20427;-61
2023/09/05 00:38:33;;;;;;;7.28;5.90;;;;;;;17.95;83.34;101816.44;5110716;28;20028;-61
2023/09/05 00:41:00;;;;;;;6.47;5.85;;;;;;;17.81;83.69;101822.91;5105410;28;20034;-60
2023/09/05 00:43:26;;;;;;;6.47;5.82;;;;;;;17.77;84.01;101821.41;5112069;28;20387;-60
2023/09/05 00:45:56;;;;;;;6.20;5.60;;;;;;;17.85;83.82;101828.91;5109401;28;20027;-60
2023/09/05 00:48:27;;;;;;;7.57;5.57;;;;;;;17.82;83.44;101816.53;5112753;28;20032;-60
2023/09/05 00:50:56;;;;;;;6.72;5.97;;;;;;;17.76;83.48;101827.75;5109759;28;20034;-61
2023/09/05 00:53:25;;;;;;;9.50;5.93;;;;;;;17.76;83.53;101816.13;5110592;28;20528;-60
2023/09/05 00:55:51;;;;;;;7.25;5.57;;;;;;;17.58;84.61;101823.81;5093540;28;20297;-61
2023/09/05 00:58:16;;;;;;;7.88;5.85;;;;;;;17.57;84.22;101814.88;5111531;28;20382;-61
2023/09/05 01:00:44;;;;;;;7.65;6.00;;;;;;;17.62;84.24;101818.09;5102417;28;20028;-60
2023/09/05 01:03:09;;;;;;;6.90;6.20;;;;;;;17.50;84.49;101805.59;5094137;28;20090;-61
2023/09/05 01:05:38;;;;;;;7.55;6.25;;;;;;;17.36;85.09;101812.00;5113852;28;20111;-61
2023/09/05 01:08:07;;;;;;;9.33;6.30;;;;;;;17.35;85.30;101818.34;5114218;28;20526;-61
2023/09/05 01:10:47;;;;;;;8.00;6.55;;;;;;;17.44;84.75;101819.47;5114315;28;20024;-60
2023/09/05 01:13:22;;;;;;;7.68;6.90;;;;;;;17.29;86.02;101820.66;5114357;28;20513;-60
2023/09/05 01:15:47;;;;;;;7.45;6.68;;;;;;;17.39;85.38;101814.47;5110157;27;20020;-61
2023/09/05 01:18:13;;;;;;;10.55;6.97;;;;;;;17.15;86.27;101811.81;5114142;28;20034;-61
2023/09/05 01:21:17;;;;;;;8.70;7.80;;;;;;;17.41;85.30;101815.22;5095406;28;20027;-61
2023/09/05 01:23:53;;;;;;;9.98;7.55;;;;;;;17.34;85.64;101813.09;5109675;28;20039;-61
2023/09/05 01:26:19;;;;;;;8.75;7.82;;;;;;;17.21;85.93;101805.13;5109337;28;20381;-61
2023/09/05 01:28:51;;;;;;;10.55;7.40;;;;;;;17.36;85.45;101814.69;5113947;28;20023;-61
2023/09/05 01:31:20;;;;;;;8.75;7.40;;;;;;;17.23;85.57;101821.97;5114111;27;20100;-61
2023/09/05 01:33:45;;;;;;;8.90;7.38;;;;;;;17.24;85.84;101823.72;5113626;28;20044;-60
2023/09/05 01:36:11;;;;;;;7.95;7.20;;;;;;;17.28;85.75;101827.00;5113326;28;20035;-61
2023/09/05 01:38:36;;;;;;;10.48;7.97;;;;;;;17.17;86.27;101836.72;5113613;28;20020;-60
2023/09/05 01:41:02;;;;;;;8.48;7.63;;;;;;;17.22;85.74;101817.56;5113657;28;20107;-61
2023/09/05 01:43:27;;;;;;;10.88;8.20;;;;;;;17.13;86.02;101829.88;5101173;27;20062;-61
2023/09/05 01:45:53;;;;;;;8.02;7.22;;;;;;;17.21;85.61;101832.00;5134198;27;20083;-61
2023/09/05 01:48:18;;;;;;;9.77;7.97;;;;;;;17.13;85.69;101810.22;5129081;27;20080;-61
2023/09/05 01:50:44;;;;;;;9.15;7.97;;;;;;;17.20;85.44;101820.38;5112889;28;20153;-60
2023/09/05 01:53:09;;;;;;;11.30;8.25;;;;;;;17.05;85.99;101818.84;5113008;28;20031;-60
2023/09/05 01:55:35;;;;;;;9.82;7.78;;;;;;;17.17;85.19;101822.44;5092192;28;20861;-60
2023/09/05 01:58:00;;;;;;;9.48;8.30;;;;;;;17.03;86.30;101818.97;5113548;28;20489;-60
2023/09/05 02:00:25;;;;;;;10.70;7.97;;;;;;;17.05;86.03;101823.38;5113352;28;20382;-60
2023/09/05 02:02:51;;;;;;;9.88;8.18;;;;;;;16.98;86.14;101818.44;5112149;28;20038;-60
2023/09/05 02:05:16;;;;;;;8.43;7.55;;;;;;;16.99;86.31;101817.47;5113238;27;20028;-60
2023/09/05 02:07:45;;;;;;;8.63;7.75;;;;;;;17.11;85.84;101822.91;5112919;28;20051;-60
2023/09/05 02:10:10;;;;;;;8.27;7.45;;;;;;;16.95;85.91;101813.31;5112953;28;20115;-61
2023/09/05 02:12:36;;;;;;;10.32;7.72;;;;;;;16.93;85.74;101804.50;5113156;28;20094;-60
2023/09/05 02:15:02;;;;;;;9.02;8.10;;;;;;;16.84;85.81;101813.25;5094709;28;20340;-60
2023/09/05 02:17:31;;;;;;;8.85;8.05;;;;;;;16.96;85.54;101808.78;5113235;28;20474;-60
2023/09/05 02:19:59;;;;;;;10.55;7.55;;;;;;;16.84;86.32;101818.63;5112207;28;20467;-61
2023/09/05 02:22:25;;;;;;;9.07;7.93;;;;;;;16.86;86.05;101813.13;5113461;27;20431;-61
2023/09/05 02:24:50;;;;;;;8.68;7.78;;;;;;;16.82;86.14;101815.16;5110817;28;20019;-61
2023/09/05 02:27:15;;;;;;;9.32;7.68;;;;;;;16.75;86.22;101803.16;5110790;28;20447;-61
2023/09/05 02:29:41;;;;;;;7.97;7.28;;;;;;;16.88;85.74;101809.34;5112742;28;20023;-61
2023/09/05 02:32:06;;;;;;;9.02;7.80;;;;;;;16.72;85.91;101800.69;5109068;28;20035;-60
2023/09/05 02:34:32;;;;;;;11.05;8.15;;;;;;;16.73;85.84;101803.25;5111795;28;20080;-61
2023/09/05 02:36:59;;;;;;;8.90;7.53;;;;;;;16.74;85.95;101823.78;5112758;28;20084;-61
2023/09/05 02:39:24;;;;;;;8.23;7.30;;;;;;;16.80;85.38;101818.00;5099694;27;20510;-61
2023/09/05 02:41:50;;;;;;;9.57;7.65;;;;;;;16.66;85.94;101818.09;5133110;27;20102;-60
2023/09/05 02:44:15;;;;;;;8.75;7.82;;;;;;;16.80;85.66;101827.88;5114651;27;20053;-61
2023/09/05 02:46:41;;;;;;;9.13;7.88;;;;;;;16.72;85.96;101822.19;5133366;27;20027;-61
2023/09/05 02:49:06;;;;;;;8.88;7.78;;;;;;;16.75;85.71;101811.19;5132701;27;20067;-60
2023/09/05 02:51:31;;;;;;;8.73;7.88;;;;;;;16.58;86.19;101799.00;5117026;27;20058;-60
2023/09/05 02:53:59;;;;;;;10.38;7.70;;;;;;;16.42;86.93;101809.16;5112258;28;20058;-60
2023/09/05 02:56:24;;;;;;;8.25;7.20;;;;;;;16.55;86.12;101804.59;5112941;28;20027;-60
2023/09/05 02:58:50;;;;;;;10.57;7.32;;;;;;;16.54;86.20;101795.69;5112543;28;20015;-60
2023/09/05 03:01:15;;;;;;;7.82;7.03;;;;;;;16.55;86.11;101805.44;5111641;28;20115;-61
2023/09/05 03:03:41;;;;;;;9.00;7.47;;;;;;;16.44;86.93;101801.84;5112135;28;20484;-60
2023/09/05 03:06:14;;;;;;;8.70;7.18;;;;;;;16.51;86.87;101801.28;5111638;28;20055;-60
2023/09/05 03:08:42;;;;;;;7.93;7.03;;;;;;;16.61;86.05;101800.59;5112437;28;20106;-60
2023/09/05 03:11:08;;;;;;;8.05;6.97;;;;;;;16.57;85.82;101800.84;5112096;28;20486;-60
2023/09/05 03:13:33;;;;;;;9.13;7.43;;;;;;;16.43;86.34;101802.81;5094498;28;20062;-61
2023/09/05 03:15:59;;;;;;;7.60;6.90;;;;;;;16.45;86.33;101792.81;5112157;28;20019;-61
2023/09/05 03:18:27;;;;;;;7.78;7.00;;;;;;;16.39;86.97;101802.19;5112044;28;20069;-60
2023/09/05 03:20:53;;;;;;;7.90;7.10;;;;;;;16.49;85.98;101805.91;5093150;28;20024;-60
2023/09/05 03:23:18;;;;;;;8.10;6.78;;;;;;;16.47;86.32;101799.81;5111921;28;20432;-60
2023/09/05 03:25:44;;;;;;;9.27;7.20;;;;;;;16.48;86.35;101795.28;5111958;28;20059;-60
2023/09/05 03:28:13;;;;;;;9.15;7.50;;;;;;;16.39;86.78;101802.19;5111843;28;20020;-60
2023/09/05 03:30:42;;;;;;;7.22;6.63;;;;;;;16.45;86.38;101803.56;5112548;28;20020;-60
2023/09/05 03:33:08;;;;;;;9.13;6.88;;;;;;;16.28;87.21;101799.41;5111717;28;20023;-60
2023/09/05 03:35:34;;;;;;;7.90;6.95;;;;;;;16.25;87.28;101792.44;5107526;28;20055;-60
2023/09/05 03:38:00;;;;;;;7.13;6.53;;;;;;;16.20;87.44;101794.56;5111953;28;20008;-60
2023/09/05 03:40:26;;;;;;;8.02;7.03;;;;;;;16.25;86.87;101781.69;5111747;28;20031;-61
2023/09/05 03:42:53;;;;;;;9.13;7.13;;;;;;;16.31;86.44;101783.06;5093793;28;20024;-60
2023/09/05 03:45:19;;;;;;;7.28;6.60;;;;;;;16.22;87.10;101786.44;5093470;28;20494;-60
2023/09/05 03:47:45;;;;;;;8.20;7.05;;;;;;;16.16;86.76;101784.19;5101940;28;20034;-60
2023/09/05 03:50:13;;;;;;;9.95;6.97;;;;;;;16.15;87.34;101794.06;5125534;28;20077;-60
2023/09/05 03:52:38;;;;;;;9.25;6.80;;;;;;;16.10;87.87;101793.53;5109925;28;21710;-60
2023/09/05 03:55:06;;;;;;;11.38;7.53;;;;;;;15.96;88.26;101790.97;5109922;28;20080;-61
2023/09/05 03:57:32;;;;;;;7.35;6.65;;;;;;;15.82;88.73;101790.09;5110191;28;20028;-60
2023/09/05 03:59:57;;;;;;;8.13;6.53;;;;;;;15.75;89.15;101793.34;5093668;28;20031;-60
2023/09/05 04:02:22;;;;;;;8.73;6.70;;;;;;;15.81;89.03;101792.91;5090699;28;20398;-60
2023/09/05 04:04:55;;;;;;;12.15;6.93;;;;;;;15.91;88.82;101796.66;5109070;28;20072;-61
2023/09/05 04:07:24;;;;;;;8.82;7.07;;;;;;;15.85;88.83;101787.22;5111587;28;20494;-60
2023/09/05 04:09:50;;;;;;;11.18;6.97;;;;;;;15.78;88.69;101775.19;5092270;28;20028;-60
2023/09/05 04:12:15;;;;;;;10.07;6.63;;;;;;;15.73;88.90;101792.56;5109558;28;20084;-60
2023/09/05 04:14:41;;;;;;;9.20;7.13;;;;;;;15.91;88.49;101785.91;5093131;28;20019;-60
2023/09/05 04:17:06;;;;;;;8.07;6.97;;;;;;;15.86;88.27;101763.94;5111377;28;20478;-60
2023/09/05 04:19:32;;;;;;;7.65;6.68;;;;;;;15.84;88.41;101779.28;5096783;28;20019;-60
2023/09/05 04:21:58;;;;;;;9.40;6.80;;;;;;;15.79;88.79;101762.63;5079917;28;20019;-60
2023/09/05 04:24:23;;;;;;;8.50;6.55;;;;;;;15.79;88.93;101773.38;5094026;28;20027;-60
2023/09/05 04:26:50;;;;;;;7.30;6.35;;;;;;;15.74;89.17;101767.50;5113401;28;20024;-60
2023/09/05 04:29:16;;;;;;;7.82;6.30;;;;;;;15.81;89.36;101758.03;5096860;28;20024;-60
2023/09/05 04:31:41;;;;;;;8.18;6.68;;;;;;;15.72;89.43;101764.91;5114887;28;20027;-60
2023/09/05 04:34:09;;;;;;;7.80;6.90;;;;;;;15.70;89.32;101761.47;5093076;28;20137;-60
2023/09/05 04:36:36;;;;;;;8.55;6.65;;;;;;;15.52;90.13;101774.28;5092892;28;20024;-60
2023/09/05 04:39:05;;;;;;;8.35;6.57;;;;;;;15.63;90.28;101776.25;5070999;28;20028;-60
2023/09/05 04:41:31;;;;;;;8.63;6.93;;;;;;;15.55;91.04;101770.53;5076529;28;20029;-60
2023/09/05 04:43:56;;;;;;;6.82;6.22;;;;;;;15.53;90.95;101775.16;5068572;28;20041;-61
2023/09/05 04:46:22;;;;;;;11.63;7.03;;;;;;;15.66;90.11;101770.66;5093798;28;20115;-60
2023/09/05 04:48:53;;;;;;;6.40;5.50;;;;;;;15.77;88.87;101760.09;5081876;28;20024;-60
2023/09/05 04:51:18;;;;;;;7.07;5.40;;;;;;;15.85;88.74;101754.16;5063539;28;20472;-60
2023/09/05 04:53:44;;;;;;;8.35;5.72;;;;;;;15.71;89.11;101736.38;5056683;28;20070;-61
2023/09/05 04:56:09;;;;;;;6.45;5.70;;;;;;;15.82;88.33;101755.22;5060375;28;20043;-60
2023/09/05 04:58:34;;;;;;;8.00;5.75;;;;;;;16.02;86.94;101761.00;5064088;28;21326;-60
2023/09/05 05:01:03;;;;;;;8.90;6.38;;;;;;;15.99;86.11;101756.72;5070725;28;20029;-61
2023/09/05 05:03:30;;;;;;;8.02;5.30;;;;;;;16.08;85.99;101756.06;5057819;28;20036;-61
2023/09/05 05:05:55;;;;;;;6.13;5.40;;;;;;;16.15;86.65;101758.28;5092239;28;20116;-61
2023/09/05 05:08:21;;;;;;;13.15;6.43;;;;;;;16.03;86.71;101755.56;5073253;28;20462;-61
2023/09/05 05:10:46;;;;;;;6.30;5.25;;;;;;;16.07;86.51;101757.03;5062379;28;20029;-61
2023/09/05 05:13:12;;;;;;;6.07;5.47;;;;;;;16.17;85.17;101743.81;5074291;28;20483;-60
2023/09/05 05:15:37;;;;;;;6.63;5.95;;;;;;;16.07;86.67;101767.78;5076027;28;20108;-61
2023/09/05 05:18:03;;;;;;;7.47;5.22;;;;;;;16.18;85.89;101774.19;5082603;28;20177;-61
2023/09/05 05:20:28;;;;;;;5.70;4.95;;;;;;;16.19;85.84;101778.59;5060005;28;20544;-60
2023/09/05 05:22:54;;;;;;;8.05;5.38;;;;;;;16.20;86.85;101772.25;5057161;28;20394;-60
2023/09/05 05:25:19;;;;;;;8.10;5.28;;;;;;;16.18;86.44;101779.53;5057736;28;20111;-61
2023/09/05 05:27:44;;;;;;;6.57;5.53;;;;;;;16.06;86.94;101782.16;5068595;28;20020;-61
2023/09/05 05:30:10;;;;;;;10.32;4.90;;;;;;;15.98;87.72;101778.31;5076157;28;20378;-60
2023/09/05 05:32:37;;;;;;;7.80;5.38;;;;;;;15.96;87.46;101774.88;5063123;28;20055;-61
2023/09/05 05:35:02;;;;;;;6.22;4.82;;;;;;;15.98;88.17;101786.34;5056605;28;20371;-60
2023/09/05 05:37:28;;;;;;;9.40;5.50;;;;;;;16.03;87.63;101793.13;5071191;28;20345;-61
2023/09/05 05:39:53;;;;;;;15.15;5.85;;;;;;;15.94;88.25;101792.88;5068310;28;20410;-60
2023/09/05 05:42:19;;;;;;;8.35;5.13;;;;;;;15.97;89.07;101784.63;5068033;28;20028;-61
2023/09/05 05:44:44;;;;;;;7.18;5.18;;;;;;;15.92;89.17;101781.44;5070634;28;20036;-60
2023/09/05 05:47:09;;;;;;;6.30;5.00;;;;;;;15.95;89.07;101782.06;5066981;28;20127;-61
2023/09/05 05:49:35;;;;;;;6.07;5.40;;;;;;;16.04;88.25;101781.41;5071061;28;20071;-60
2023/09/05 05:52:01;;;;;;;6.25;5.15;;;;;;;16.14;87.52;101778.91;5069706;28;20068;-61
2023/09/05 05:54:26;;;;;;;6.25;4.82;;;;;;;16.20;87.23;101783.00;5071334;28;20035;-61
2023/09/05 05:56:53;;;;;;;7.55;4.93;;;;;;;16.17;87.84;101781.38;5071243;28;20029;-60
2023/09/05 05:59:19;;;;;;;11.70;5.53;;;;;;;16.13;88.62;101780.75;5072274;28;20103;-60
2023/09/05 06:01:44;;;;;;;8.30;5.20;;;;;;;16.25;88.70;101788.91;5072539;28;20108;-61
2023/09/05 06:04:12;;;;;;;8.02;5.13;;;;;;;16.12;88.86;101772.81;5083153;28;20047;-60
2023/09/05 06:06:38;;;;;;;7.32;4.82;;;;;;;16.33;88.43;101783.84;5092125;28;20024;-60
2023/09/05 06:09:04;;;;;;;6.18;4.85;;;;;;;16.28;89.20;101783.31;5083831;28;20025;-60
2023/09/05 06:11:29;;;;;;;5.72;5.05;;;;;;;16.37;87.64;101779.09;5066196;28;20396;-59
2023/09/05 06:13:55;;;;;;;6.95;5.55;;;;;;;16.52;85.17;101784.19;5063590;28;20046;-59
2023/09/05 06:16:21;;;;;;;5.80;4.80;;;;;;;16.62;85.87;101783.50;5062277;28;20111;-59
2023/09/05 06:18:46;;;;;;;8.77;4.95;;;;;;;16.70;85.63;101781.13;5070498;28;20017;-59
2023/09/05 06:21:12;;;;;;;7.07;5.00;;;;;;;16.82;84.86;101788.31;5058922;28;20044;-59
2023/09/05 06:23:37;;;;;;;6.90;4.90;;;;;;;16.77;85.51;101775.22;5071165;28;20047;-60
2023/09/05 06:26:02;;;;;;;7.07;4.95;;;;;;;16.96;83.64;101788.13;5072041;28;20545;-59
2023/09/05 06:28:28;;;;;;;9.32;4.90;;;;;;;16.96;86.31;101785.44;5070674;28;20111;-59
2023/09/05 06:30:57;;;;;;;5.97;4.18;;;;;;;16.98;84.56;101786.19;5072109;28;20024;-59
2023/09/05 06:33:23;;;;;;;;;;;;;;;17.12;84.90;101786.97;5073225;28;20024;-59
2023/09/05 06:35:49;;;;;;;9.25;4.88;;;;;;;17.01;84.47;101775.22;5111916;28;20392;-59
2023/09/05 06:38:14;;;;;;;5.35;4.60;;;;;;;17.16;84.46;101796.53;5116814;27;20529;-59
2023/09/05 06:40:42;;;;;;;7.70;4.75;;;;;;;17.28;83.11;101797.44;5113067;28;20034;-59
2023/09/05 06:43:09;;;;;;;7.00;4.78;;;;;;;17.25;84.33;101795.84;5112254;28;20130;-59
2023/09/05 06:45:34;;;;;;;5.35;4.40;;;;;;;17.46;81.85;101796.03;5112257;28;20482;-59
2023/09/05 06:48:00;;;;;;;8.25;4.78;;;;;;;17.63;80.45;101786.66;5112773;28;20026;-60
2023/09/05 06:50:25;;;;;;;9.13;4.32;;;;;;;17.64;82.94;101791.03;5112004;28;20482;-59
2023/09/05 06:52:51;;;;;;;9.82;4.75;;;;;;;17.73;81.77;101784.94;5103423;28;20023;-60
2023/09/05 06:55:16;;;;;;;9.45;4.68;;;;;;;17.76;82.40;101782.00;5100953;28;20542;-59
2023/09/05 06:57:42;;;;;;;4.75;4.00;;;;;;;17.83;80.85;101777.06;5111982;28;20051;-59
2023/09/05 07:00:08;;;;;;;5.53;4.22;;;;;;;17.95;78.63;101786.00;5092653;28;20059;-59
2023/09/05 07:02:33;;;;;;;5.45;4.32;;;;;;;17.96;79.64;101775.09;5112141;28;20106;-60
2023/09/05 07:04:59;;;;;;;7.47;3.80;;;;;;;18.02;79.61;101779.13;5106728;28;20389;-59
2023/09/05 07:07:25;;;;;;;7.85;3.95;;;;;;;18.10;78.76;101776.69;5100909;28;20027;-59
2023/09/05 07:09:51;;;;;;;5.50;4.28;;;;;;;18.12;79.62;101780.13;5103915;28;20031;-59
2023/09/05 07:12:16;;;;;;;5.95;4.25;;;;;;;18.15;79.94;101780.72;5084559;28;20028;-60
2023/09/05 07:14:43;;;;;;;7.03;4.10;;;;;;;18.15;80.32;101769.97;5083857;28;20118;-59
2023/09/05 07:17:11;;;;;;;7.70;4.40;;;;;;;18.26;81.12;101774.44;5110821;28;20523;-60
2023/09/05 07:19:36;;;;;;;8.07;4.10;;;;;;;18.39;79.16;101768.94;5111362;28;20040;-60
2023/09/05 07:22:03;;;;;;;5.88;3.97;;;;;;;18.46;79.29;101767.47;5093670;28;20031;-60
2023/09/05 07:24:28;;;;;;;7.30;4.30;;;;;;;18.55;77.59;101769.38;5106798;28;20035;-60
2023/09/05 07:26:54;;;;;;;8.10;3.83;;;;;;;18.67;76.34;101762.13;5111854;28;20020;-60
2023/09/05 07:29:23;;;;;;;4.55;3.95;;;;;;;18.75;77.34;101773.16;5111666;28;20520;-59
2023/09/05 07:31:48;;;;;;;4.72;3.42;;;;;;;18.87;75.78;101778.53;5111563;28;20036;-59
2023/09/05 07:34:14;;;;;;;4.13;3.72;;;;;;;18.86;77.92;101768.75;5111663;28;20127;-60
2023/09/05 07:36:40;;;;;;;5.45;3.80;;;;;;;18.91;78.93;101758.41;5111469;28;20172;-60
2023/09/05 07:39:05;;;;;;;7.93;4.10;;;;;;;18.92;79.65;101761.00;5111725;28;20112;-59
2023/09/05 07:41:33;;;;;;;5.25;3.45;;;;;;;19.07;75.17;101766.94;5111969;28;20031;-59
2023/09/05 07:43:58;;;;;;;5.05;3.60;;;;;;;19.08;76.79;101747.06;5093680;28;20038;-60
2023/09/05 07:46:24;;;;;;;5.03;3.33;;;;;;;19.22;74.34;101754.84;5093320;28;20023;-59
2023/09/05 07:48:49;;;;;;;4.90;3.50;;;;;;;19.33;73.49;101755.78;5114945;28;20061;-59
2023/09/05 07:51:15;;;;;;;7.65;3.58;;;;;;;19.39;74.41;101755.25;5097081;28;20019;-60
2023/09/05 07:53:48;;;;;;;4.82;3.50;;;;;;;19.51;74.76;101775.78;5115343;28;20066;-60
2023/09/05 07:56:14;;;;;;;6.22;3.78;;;;;;;19.66;74.44;101762.81;5115552;28;20069;-60
2023/09/05 07:58:39;;;;;;;4.55;3.90;;;;;;;19.69;74.82;101779.59;5097499;28;20023;-59
2023/09/05 08:01:09;;;;;;;6.28;3.60;;;;;;;19.74;73.96;101771.13;5110991;28;20054;-59
2023/09/05 08:03:38;;;;;;;7.40;3.70;;;;;;;19.78;75.89;101763.59;5095136;28;20039;-59
2023/09/05 08:06:06;;;;;;;5.37;3.67;;;;;;;19.77;78.07;101778.09;5094544;28;20020;-59
2023/09/05 08:08:31;;;;;;;9.27;4.32;;;;;;;20.04;71.71;101772.97;5110389;28;20772;-59
2023/09/05 08:10:57;;;;;;;7.18;3.42;;;;;;;20.19;71.23;101777.00;5110808;28;20028;-59
2023/09/05 08:13:25;;;;;;;11.40;4.18;;;;;;;20.28;72.65;101780.72;5110815;28;20016;-59
2023/09/05 08:15:51;;;;;;;10.98;3.88;;;;;;;20.41;71.40;101775.94;5129868;27;20027;-59
2023/09/05 08:18:17;;;;;;;6.53;4.60;;;;;;;20.50;71.59;101776.06;5106964;28;20069;-59
2023/09/05 08:20:43;;;;;;;7.30;4.38;;;;;;;20.56;67.11;101762.91;5110615;28;20451;-59
2023/09/05 08:23:10;;;;;;;9.55;3.95;;;;;;;20.72;69.45;101777.75;5115030;28;20094;-59
2023/09/05 08:25:35;;;;;;;6.82;3.60;;;;;;;20.85;67.56;101772.91;5115203;28;20020;-59
2023/09/05 08:28:00;;;;;;;11.38;3.53;;;;;;;20.80;69.52;101773.34;5096996;28;20027;-59
2023/09/05 08:30:28;;;;;;;11.13;4.13;;;;;;;21.09;67.51;101784.16;5113008;28;20028;-60
2023/09/05 08:32:57;;;;;;;8.80;4.00;;;;;;;21.24;64.47;101781.03;5115608;28;20023;-59
2023/09/05 08:35:23;;;;;;;5.93;3.83;;;;;;;21.31;63.77;101769.47;5108780;28;20120;-59
2023/09/05 08:37:48;;;;;;;4.35;3.60;;;;;;;21.43;65.38;101764.78;5114810;28;20443;-59
2023/09/05 08:40:16;;;;;;;6.93;3.50;;;;;;;21.50;65.51;101756.94;5114829;28;20027;-59
2023/09/05 08:42:44;;;;;;;5.22;4.05;;;;;;;21.60;65.21;101759.63;5115097;28;20513;-59
2023/09/05 08:45:15;;;;;;;5.68;3.60;;;;;;;21.76;66.79;101765.28;5096626;28;20157;-59
2023/09/05 08:47:40;;;;;;;9.27;3.45;;;;;;;21.80;63.77;101771.28;5114796;28;20019;-59
2023/09/05 08:50:08;;;;;;;8.15;4.18;;;;;;;21.87;63.13;101775.94;5114145;28;20026;-59
2023/09/05 08:52:37;;;;;;;6.60;3.50;;;;;;;21.99;62.49;101772.03;5114543;28;20020;-60
2023/09/05 08:55:03;;;;;;;6.35;3.53;;;;;;;22.03;63.47;101763.59;5109614;28;20024;-59
2023/09/05 08:57:31;;;;;;;6.78;3.90;;;;;;;22.12;64.83;101768.13;5098767;28;20024;-60
2023/09/05 08:59:56;;;;;;;10.80;3.97;;;;;;;22.33;62.43;101770.66;5107730;28;20085;-59
2023/09/05 09:02:22;;;;;;;7.88;3.95;;;;;;;22.36;60.92;101771.19;5093995;28;20032;-59
2023/09/05 09:04:52;;;;;;;5.35;3.60;;;;;;;22.55;63.35;101770.22;5093533;28;20036;-60
2023/09/05 09:07:17;;;;;;;10.02;3.65;;;;;;;22.52;62.97;101762.38;5093507;28;20313;-59
2023/09/05 09:09:43;;;;;;;5.18;3.47;;;;;;;22.63;60.12;101783.88;5094052;28;20084;-59
2023/09/05 09:12:09;;;;;;;17.00;4.47;;;;;;;22.70;59.22;101780.53;5093780;28;20030;-59
2023/09/05 09:14:35;;;;;;;12.20;4.18;;;;;;;22.66;60.69;101780.84;5101387;28;20023;-59
2023/09/05 09:17:05;;;;;;;12.07;4.30;;;;;;;22.71;60.14;101782.22;5114338;28;20030;-59
2023/09/05 09:19:31;;;;;;;6.75;3.42;;;;;;;22.90;61.89;101780.22;5113820;28;20072;-59
2023/09/05 09:22:07;;;;;;;5.90;3.33;;;;;;;22.98;62.29;101784.09;5114044;28;20026;-59
2023/09/05 09:24:35;;;;;;;7.53;3.38;;;;;;;23.13;60.82;101790.66;5099500;28;20035;-63
2023/09/05 09:27:02;;;;;;;7.93;3.28;;;;;;;23.27;62.37;101784.69;5118639;27;20016;-64
2023/09/05 09:29:29;;;;;;;6.40;3.55;;;;;;;23.27;59.62;101786.56;5075604;28;20117;-65
2023/09/05 09:32:00;;;;;;;6.28;3.35;;;;;;;23.56;60.84;101792.56;5093596;28;20398;-64
2023/09/05 09:34:25;;;;;;;4.82;3.13;;;;;;;23.55;57.51;101793.53;5093156;28;20083;-62
2023/09/05 09:36:52;;;;;;;5.28;3.40;;;;;;;23.64;57.44;101797.16;5093119;28;20438;-63
2023/09/05 09:39:17;;;;;;;7.22;3.85;;;;;;;23.70;59.50;101796.56;5093335;28;20379;-63
2023/09/05 09:41:46;;;;;;;9.13;3.50;;;;;;;23.87;58.41;101796.69;5093444;28;20024;-63
2023/09/05 09:44:26;;;;;;;7.00;3.53;;;;;;;23.93;58.57;101794.16;5093295;28;20071;-62
2023/09/05 09:46:53;;;;;;;4.28;2.92;;;;;;;24.09;57.91;101797.97;5093249;28;20077;-63
2023/09/05 09:49:19;;;;;;;7.80;3.13;;;;;;;24.18;58.37;101792.44;5075033;28;20500;-62
2023/09/05 09:51:51;;;;;;;14.68;4.07;;;;;;;24.26;57.13;101800.59;5108327;28;20024;-63
2023/09/05 09:54:22;;;;;;;8.88;3.60;;;;;;;24.34;57.22;101791.63;5093042;28;20103;-63
2023/09/05 09:56:50;;;;;;;7.25;3.63;;;;;;;24.45;56.73;101783.22;5093210;28;20028;-63
2023/09/05 09:59:18;;;;;;;6.30;3.05;;;;;;;24.70;56.58;101786.00;5092882;28;20030;-63
2023/09/05 10:01:44;;;;;;;4.97;2.95;;;;;;;24.66;57.56;101787.34;5093129;28;20020;-64
2023/09/05 10:04:11;;;;;;;7.28;3.38;;;;;;;24.69;56.50;101798.75;5092746;28;20073;-64
2023/09/05 10:06:37;;;;;;;6.97;3.10;;;;;;;24.81;57.13;101793.00;5092172;28;20024;-63
2023/09/05 10:09:04;;;;;;;7.03;3.10;;;;;;;24.83;56.80;101783.66;5074985;28;20070;-65
2023/09/05 10:11:31;;;;;;;5.50;3.47;;;;;;;24.97;56.42;101787.56;5092481;28;20516;-65
2023/09/05 10:13:58;;;;;;;8.40;3.78;;;;;;;24.96;54.99;101777.72;5098547;28;20023;-65
2023/09/05 10:16:24;;;;;;;3.85;2.95;;;;;;;25.15;55.32;101777.44;5094720;28;20032;-65
2023/09/05 10:18:50;;;;;;;7.57;3.33;;;;;;;25.21;56.69;101775.91;5094458;28;20122;-66
2023/09/05 10:21:16;;;;;;;6.38;3.17;;;;;;;25.27;54.09;101771.66;5107380;28;20102;-65
2023/09/05 10:23:42;;;;;;;4.22;3.30;;;;;;;25.10;57.20;101773.47;5093218;28;20020;-65
2023/09/05 10:26:09;;;;;;;4.65;3.28;;;;;;;25.30;54.12;101774.03;5091163;28;20077;-65
2023/09/05 10:28:34;;;;;;;4.97;3.25;;;;;;;25.40;55.26;101769.25;5057532;28;20059;-65
2023/09/05 10:31:13;;;;;;;5.85;3.65;;;;;;;25.51;54.44;101768.88;5092490;28;20058;-65
2023/09/05 10:33:39;;;;;;;12.07;3.47;;;;;;;25.51;52.17;101765.31;5092129;28;20020;-65
2023/09/05 10:36:06;;;;;;;5.18;3.38;;;;;;;25.63;52.86;101772.09;5091739;28;20055;-65
2023/09/05 10:38:38;;;;;;;7.18;3.05;;;;;;;25.66;53.62;101755.41;5092299;28;20498;-65
2023/09/05 10:41:04;;;;;;;4.18;3.05;;;;;;;25.75;51.93;101758.97;5074071;28;20032;-65
2023/09/05 10:43:32;;;;;;;4.28;3.03;;;;;;;25.84;52.40;101763.41;5092583;28;20016;-65
2023/09/05 10:46:03;;;;;;;4.15;2.85;;;;;;;25.86;51.20;101771.41;5074245;28;20049;-66
2023/09/05 10:48:45;;;;;;;6.45;2.80;;;;;;;25.89;52.88;101754.72;5107744;28;20036;-65
2023/09/05 10:51:14;;;;;;;6.90;3.08;;;;;;;26.01;51.33;101773.22;5091732;28;20111;-65
2023/09/05 10:53:44;;;;;;;;;;;;;;;25.95;52.17;101767.63;5092540;28;20099;-65
2023/09/05 10:56:40;;;;;;;7.50;3.03;;;;;;;25.98;51.05;101764.56;5091920;28;19958;-66
2023/09/05 10:59:23;;;;;;;4.53;2.70;;;;;;;26.07;52.19;101758.03;5107454;28;20028;-66
2023/09/05 11:01:52;;;;;;;3.63;2.85;;;;;;;26.07;49.21;101738.09;5091895;28;20024;-65
2023/09/05 11:04:20;;;;;;;5.55;2.72;;;;;;;26.30;49.58;101758.13;5091665;28;20016;-66
2023/09/05 11:06:56;;;;;;;4.53;2.80;;;;;;;26.26;49.15;101752.13;5073108;28;20390;-66
2023/09/05 11:09:21;;;;;;;5.30;2.90;;;;;;;26.22;51.31;101736.31;5091577;28;20031;-66
2023/09/05 11:11:47;;;;;;;4.88;3.00;;;;;;;26.53;50.76;101746.41;5091540;28;20028;-66
2023/09/05 11:14:12;;;;;;;5.85;2.83;;;;;;;26.43;48.52;101749.34;5096939;28;20023;-66
2023/09/05 11:16:47;;;;;;;3.95;2.88;;;;;;;26.50;48.75;101742.16;5111969;28;20488;-66
2023/09/05 11:19:27;;;;;;;3.03;2.53;;;;;;;26.52;49.93;101734.66;5093862;28;20023;-66
2023/09/05 11:22:05;;;;;;;5.05;2.50;;;;;;;26.70;51.25;101745.28;5093552;28;20019;-66
2023/09/05 11:24:32;;;;;;;5.72;2.88;;;;;;;26.81;47.97;101744.84;5112132;28;20493;-66